createdAt,value
2022-09-12T00:02:03.732Z,9.10
2022-09-12T00:04:32.515Z,9.37
2022-09-12T00:06:59.728Z,9.07
2022-09-12T00:09:27.120Z,9.03
2022-09-12T00:11:54.319Z,10.10
2022-09-12T00:14:21.530Z,10.63
2022-09-12T00:16:48.745Z,9.47
2022-09-12T00:19:16.090Z,10.33
2022-09-12T00:21:44.744Z,10.47
2022-09-12T00:24:12.190Z,10.17
2022-09-12T00:26:45.841Z,8.93
2022-09-12T00:29:34.712Z,8.80
2022-09-12T00:32:06.777Z,8.73
2022-09-12T00:34:34.000Z,8.13
2022-09-12T00:37:02.583Z,8.17
2022-09-12T00:39:29.826Z,10.33
2022-09-12T00:42:03.050Z,7.67
2022-09-12T00:44:47.974Z,9.83
2022-09-12T00:47:17.711Z,9.20
2022-09-12T00:49:46.618Z,7.97
2022-09-12T00:52:16.703Z,9.53
2022-09-12T00:54:45.919Z,9.87
2022-09-12T00:57:20.034Z,10.77
2022-09-12T00:59:49.255Z,7.97
2022-09-12T01:02:17.316Z,7.90
2022-09-12T01:04:44.963Z,7.70
2022-09-12T01:07:35.781Z,9.13
2022-09-12T01:10:31.171Z,9.63
2022-09-12T01:12:58.930Z,9.30
2022-09-12T01:15:26.222Z,9.37
2022-09-12T01:18:01.160Z,8.97
2022-09-12T01:20:43.319Z,10.73
2022-09-12T01:23:28.549Z,8.60
2022-09-12T01:26:28.906Z,8.13
2022-09-12T01:29:04.176Z,10.47
2022-09-12T01:31:35.091Z,7.60
2022-09-12T01:34:07.731Z,9.30
2022-09-12T01:36:57.505Z,8.87
2022-09-12T01:39:54.996Z,10.43
2022-09-12T01:42:31.826Z,9.40
2022-09-12T01:45:03.350Z,7.87
2022-09-12T01:47:37.772Z,9.80
2022-09-12T01:50:07.081Z,8.60
2022-09-12T01:52:37.898Z,10.20
2022-09-12T01:55:26.552Z,9.63
2022-09-12T01:57:56.044Z,9.73
2022-09-12T02:00:23.303Z,9.83
2022-09-12T02:02:54.364Z,9.50
2022-09-12T02:05:33.278Z,9.63
2022-09-12T02:11:50.063Z,8.80
2022-09-12T02:14:20.116Z,9.43
2022-09-12T02:16:50.047Z,10.67
2022-09-12T02:19:20.657Z,9.60
2022-09-12T02:21:50.857Z,9.27
2022-09-12T02:24:18.502Z,10.87
2022-09-12T02:26:48.087Z,12.97
2022-09-12T02:29:15.743Z,10.33
2022-09-12T02:31:46.068Z,10.20
2022-09-12T02:34:17.987Z,10.50
2022-09-12T02:37:04.234Z,10.27
2022-09-12T02:39:45.514Z,11.43
2022-09-12T02:42:13.026Z,11.57
2022-09-12T02:44:40.349Z,11.07
2022-09-12T02:47:10.419Z,9.70
2022-09-12T02:49:37.786Z,12.97
2022-09-12T02:52:06.533Z,9.37
2022-09-12T02:54:39.002Z,11.20
2022-09-12T02:57:06.801Z,12.67
2022-09-12T02:59:34.300Z,16.10
2022-09-12T03:02:07.692Z,13.03
2022-09-12T03:05:20.342Z,10.30
2022-09-12T03:08:13.242Z,15.27
2022-09-12T03:10:58.978Z,12.83
2022-09-12T03:13:30.904Z,12.30
2022-09-12T03:16:04.849Z,12.27
2022-09-12T03:18:42.575Z,11.20
2022-09-12T03:21:13.384Z,15.97
2022-09-12T03:26:43.535Z,11.50
2022-09-12T03:29:11.994Z,11.97
2022-09-12T03:31:48.393Z,13.63
2022-09-12T03:34:22.114Z,12.60
2022-09-12T03:37:14.198Z,11.53
2022-09-12T03:39:42.894Z,12.93
2022-09-12T03:42:10.140Z,14.83
2022-09-12T03:44:37.439Z,12.57
2022-09-12T03:47:09.244Z,13.40
2022-09-12T03:49:38.299Z,12.93
2022-09-12T03:52:05.553Z,13.73
2022-09-12T03:54:37.671Z,11.30
2022-09-12T03:57:06.454Z,14.07
2022-09-12T03:59:33.703Z,11.57
2022-09-12T04:02:01.030Z,12.37
2022-09-12T04:04:46.631Z,11.50
2022-09-12T04:07:40.676Z,12.03
2022-09-12T04:10:09.836Z,13.57
2022-09-12T04:12:38.448Z,15.63
2022-09-12T04:15:06.307Z,12.03
2022-09-12T04:17:34.672Z,12.10
2022-09-12T04:20:02.080Z,13.20
2022-09-12T04:22:29.468Z,12.37
2022-09-12T04:24:57.312Z,15.43
2022-09-12T04:27:24.709Z,16.17
2022-09-12T04:29:53.410Z,13.17
2022-09-12T04:32:20.594Z,14.20
2022-09-12T04:41:33.432Z,15.70
2022-09-12T04:44:01.639Z,13.13
2022-09-12T04:46:30.927Z,13.27
2022-09-12T04:48:58.235Z,12.10
2022-09-12T04:51:26.382Z,12.50
2022-09-12T04:54:15.306Z,15.17
2022-09-12T04:56:43.295Z,14.13
2022-09-12T04:59:11.075Z,14.23
2022-09-12T05:01:39.833Z,15.10
2022-09-12T05:10:53.625Z,14.07
2022-09-12T05:13:20.847Z,17.90
2022-09-12T05:15:54.871Z,13.83
2022-09-12T05:18:23.420Z,15.30
2022-09-12T05:20:50.631Z,15.00
2022-09-12T05:23:17.970Z,15.77
2022-09-12T05:25:49.154Z,14.80
2022-09-12T05:28:16.362Z,15.03
2022-09-12T05:30:43.583Z,15.57
2022-09-12T05:33:10.844Z,13.47
2022-09-12T05:35:39.456Z,14.47
2022-09-12T05:41:40.296Z,14.27
2022-09-12T05:44:08.079Z,15.17
2022-09-12T05:46:37.267Z,15.83
2022-09-12T05:49:05.067Z,16.90
2022-09-12T05:51:35.163Z,14.87
2022-09-12T05:54:03.334Z,15.87
2022-09-12T05:56:31.767Z,15.23
2022-09-12T05:59:00.126Z,15.70
2022-09-12T06:01:28.189Z,16.33
2022-09-12T06:03:56.591Z,14.17
2022-09-12T06:06:24.900Z,15.53
2022-09-12T06:08:54.442Z,15.63
2022-09-12T06:11:22.635Z,18.83
2022-09-12T06:13:50.228Z,18.70
2022-09-12T06:16:18.196Z,16.67
2022-09-12T06:18:47.958Z,18.93
2022-09-12T06:21:15.165Z,16.17
2022-09-12T06:23:42.596Z,18.07
2022-09-12T06:26:11.554Z,19.60
2022-09-12T06:28:39.524Z,18.43
2022-09-12T06:31:07.732Z,15.93
2022-09-12T06:33:35.943Z,17.87
2022-09-12T06:36:03.992Z,20.70
2022-09-12T06:38:31.276Z,15.53
2022-09-12T06:40:58.597Z,18.17
2022-09-12T06:43:27.468Z,20.60
2022-09-12T06:45:54.814Z,18.63
2022-09-12T06:48:22.011Z,14.57
2022-09-12T06:50:55.892Z,20.13
2022-09-12T06:53:23.150Z,17.90
2022-09-12T06:55:55.485Z,21.83
2022-09-12T06:58:24.656Z,17.37
2022-09-12T07:01:15.829Z,16.63
2022-09-12T07:03:47.510Z,14.77
2022-09-12T07:06:15.580Z,17.80
2022-09-12T07:08:43.199Z,20.03
2022-09-12T07:11:11.386Z,15.80
2022-09-12T07:13:38.763Z,19.60
2022-09-12T07:24:39.088Z,19.03
2022-09-12T07:33:34.047Z,18.27
2022-09-12T07:36:01.743Z,12.03
2022-09-12T07:38:44.798Z,10.23
2022-09-12T07:41:13.974Z,15.93
2022-09-12T07:43:41.300Z,11.97
2022-09-12T07:46:08.746Z,14.93
2022-09-12T07:48:36.058Z,15.77
2022-09-12T07:51:04.479Z,13.47
2022-09-12T07:53:32.513Z,16.27
2022-09-12T07:55:59.719Z,12.83
2022-09-12T07:58:28.263Z,14.33
2022-09-12T08:01:02.042Z,15.33
2022-09-12T08:03:29.351Z,15.87
2022-09-12T08:06:05.603Z,14.40
2022-09-12T08:08:32.900Z,11.93
2022-09-12T08:11:00.177Z,11.63
2022-09-12T08:13:28.980Z,12.07
2022-09-12T08:15:58.317Z,13.13
2022-09-12T08:18:25.568Z,9.13
2022-09-12T08:20:59.532Z,9.87
2022-09-12T08:23:27.166Z,13.23
2022-09-12T08:25:56.327Z,13.50
2022-09-12T08:28:23.600Z,9.97
2022-09-12T08:31:12.797Z,10.00
2022-09-12T08:34:11.030Z,9.60
2022-09-12T08:36:58.144Z,10.33
2022-09-12T08:39:25.543Z,9.07
2022-09-12T08:41:58.691Z,7.70
2022-09-12T08:44:30.051Z,6.53
2022-09-12T08:47:05.366Z,8.17
2022-09-12T08:49:34.130Z,7.20
2022-09-12T08:52:11.600Z,5.70
2022-09-12T08:54:39.558Z,7.47
2022-09-12T08:57:07.133Z,10.57
2022-09-12T08:59:36.260Z,6.80
2022-09-12T09:06:01.629Z,4.27
2022-09-12T09:08:39.801Z,5.63
2022-09-12T09:11:14.587Z,5.80
2022-09-12T09:13:47.091Z,4.50
2022-09-12T09:16:17.112Z,3.28
2022-09-12T09:18:46.415Z,4.22
2022-09-12T09:21:21.641Z,8.00
2022-09-12T09:23:52.227Z,6.22
2022-09-12T09:26:22.087Z,3.78
2022-09-12T09:28:51.102Z,4.22
2022-09-12T09:38:11.668Z,8.32
2022-09-12T09:40:46.350Z,3.10
2022-09-12T09:43:19.649Z,5.15
2022-09-12T09:45:47.993Z,3.53
2022-09-12T09:48:17.954Z,5.80
2022-09-12T09:50:47.585Z,3.78
2022-09-12T09:53:21.560Z,2.72
2022-09-12T09:55:50.813Z,3.25
2022-09-12T09:58:28.620Z,6.15
2022-09-12T10:04:26.886Z,3.10
2022-09-12T10:06:54.621Z,4.22
2022-09-12T10:09:23.400Z,3.45
2022-09-12T10:11:52.540Z,4.97
2022-09-12T10:14:30.935Z,3.63
2022-09-12T10:16:58.491Z,3.42
2022-09-12T10:22:57.265Z,4.50
2022-09-12T10:25:25.882Z,3.70
2022-09-12T10:27:56.731Z,4.82
2022-09-12T10:34:12.166Z,2.75
2022-09-12T10:36:40.329Z,3.78
2022-09-12T10:39:22.962Z,2.47
2022-09-12T10:41:50.184Z,3.28
2022-09-12T10:44:20.032Z,4.65
2022-09-12T10:46:47.281Z,3.45
2022-09-12T11:21:27.218Z,4.45
2022-09-12T11:54:56.918Z,3.25
2022-09-12T11:57:30.264Z,2.85
2022-09-12T11:59:59.515Z,4.28
2022-09-12T12:02:28.187Z,5.75
2022-09-12T12:05:16.027Z,3.17
2022-09-12T12:07:47.718Z,2.92
2022-09-12T12:14:20.013Z,2.55
2022-09-12T12:16:48.990Z,4.00
2022-09-12T12:19:31.903Z,3.97
2022-09-12T12:22:06.463Z,2.30
2022-09-12T12:24:33.919Z,4.95
2022-09-12T12:27:02.078Z,2.78
2022-09-12T12:29:48.924Z,3.60
2022-09-12T12:32:21.958Z,2.08
2022-09-12T12:34:49.346Z,3.40
2022-09-12T12:37:52.784Z,3.65
2022-09-12T12:44:14.996Z,4.20
2022-09-12T12:47:02.457Z,3.67
2022-09-12T12:49:31.256Z,2.10
2022-09-12T12:52:00.529Z,2.33
2022-09-12T12:54:29.141Z,2.63
2022-09-12T12:57:17.954Z,4.25
2022-09-12T12:59:49.894Z,2.83
2022-09-12T13:02:20.639Z,2.88
2022-09-12T13:04:49.544Z,2.83
2022-09-12T13:14:34.850Z,2.65
2022-09-12T13:17:05.119Z,3.00
2022-09-12T13:19:33.355Z,2.95
2022-09-12T13:22:03.028Z,5.95
2022-09-12T13:24:30.542Z,4.07
2022-09-12T13:32:28.997Z,1.13
2022-09-12T13:35:07.008Z,2.75
2022-09-12T13:37:51.467Z,2.58
2022-09-12T13:40:28.371Z,2.90
2022-09-12T13:49:42.787Z,3.13
2022-09-12T13:52:15.031Z,3.72
2022-09-12T13:54:45.199Z,2.53
2022-09-12T13:57:27.951Z,3.47
2022-09-12T13:59:56.057Z,3.65
2022-09-12T14:02:24.342Z,2.95
2022-09-12T14:04:53.139Z,2.42
2022-09-12T14:07:21.675Z,6.18
2022-09-12T14:09:53.972Z,3.60
2022-09-12T14:12:25.612Z,4.13
2022-09-12T14:14:54.368Z,2.78
2022-09-12T14:24:01.771Z,3.88
2022-09-12T14:26:29.364Z,6.65
2022-09-12T14:28:56.760Z,5.32
2022-09-12T14:31:29.454Z,3.97
2022-09-12T14:33:57.731Z,3.40
2022-09-12T14:36:38.059Z,9.45
2022-09-12T14:39:06.334Z,6.07
2022-09-12T14:41:35.331Z,4.13
2022-09-12T14:44:04.832Z,4.90
2022-09-12T14:46:54.044Z,3.60
2022-09-12T14:49:44.126Z,4.25
2022-09-12T14:52:35.607Z,3.65
2022-09-12T14:55:05.146Z,5.38
2022-09-12T14:57:34.011Z,4.28
2022-09-12T15:00:15.704Z,3.03
2022-09-12T15:02:43.408Z,5.22
2022-09-12T15:08:27.466Z,4.70
2022-09-12T15:10:56.545Z,4.68
2022-09-12T15:13:24.491Z,3.55
2022-09-12T15:23:07.126Z,5.28
2022-09-12T15:25:34.302Z,2.28
2022-09-12T15:28:06.439Z,2.95
2022-09-12T15:30:33.711Z,6.15
2022-09-12T15:33:00.879Z,3.47
2022-09-12T16:32:54.279Z,4.63
2022-09-12T16:35:23.082Z,2.40
2022-09-12T16:37:50.459Z,4.35
2022-09-12T16:40:17.761Z,2.80
2022-09-12T16:42:45.306Z,4.30
2022-09-12T16:45:12.957Z,3.08
2022-09-12T16:47:40.373Z,5.93
2022-09-12T16:50:08.705Z,6.40
2022-09-12T16:52:37.310Z,3.60
2022-09-12T16:55:05.217Z,2.97
2022-09-12T16:57:33.495Z,5.68
2022-09-12T17:00:00.721Z,4.30
2022-09-12T17:02:28.080Z,8.50
2022-09-12T17:04:55.382Z,3.33
2022-09-12T17:07:22.715Z,3.72
2022-09-12T17:09:51.372Z,3.33
2022-09-12T17:12:18.788Z,3.65
2022-09-12T17:14:45.967Z,4.68
2022-09-12T17:17:13.207Z,3.28
2022-09-12T17:19:40.427Z,3.38
2022-09-12T17:22:07.732Z,2.50
2022-09-12T17:24:35.126Z,5.78
2022-09-12T17:27:04.124Z,4.10
2022-09-12T17:29:31.406Z,2.72
2022-09-12T17:31:58.764Z,3.35
2022-09-12T17:34:26.126Z,2.75
2022-09-12T17:36:53.581Z,5.70
2022-09-12T17:39:20.962Z,3.85
2022-09-12T17:41:48.261Z,3.15
2022-09-12T17:44:16.956Z,3.17
2022-09-12T17:46:44.541Z,6.45
2022-09-12T17:49:12.963Z,5.93
2022-09-12T17:51:40.843Z,3.42
2022-09-12T17:54:09.185Z,3.33
2022-09-12T17:56:37.276Z,3.20
2022-09-12T17:59:05.521Z,5.78
2022-09-12T18:01:34.310Z,5.80
2022-09-12T18:04:02.135Z,2.72
2022-09-12T18:06:30.221Z,4.00
2022-09-12T18:08:59.804Z,4.80
2022-09-12T18:11:27.139Z,3.78
2022-09-12T18:13:54.752Z,3.70
2022-09-12T18:16:22.471Z,4.10
2022-09-12T18:18:51.123Z,3.22
2022-09-12T18:21:19.219Z,3.30
2022-09-12T18:23:46.628Z,4.82
2022-09-12T18:26:14.303Z,3.58
2022-09-12T18:28:42.780Z,5.85
2022-09-12T18:31:14.034Z,3.38
2022-09-12T18:33:41.577Z,3.72
2022-09-12T18:36:12.183Z,6.15
2022-09-12T18:38:39.755Z,4.63
2022-09-12T18:41:08.121Z,3.70
2022-09-12T18:43:35.439Z,3.53
2022-09-12T18:46:03.434Z,3.70
2022-09-12T18:48:31.123Z,4.72
2022-09-12T18:51:02.103Z,5.95
2022-09-12T18:53:30.699Z,5.93
2022-09-12T18:56:00.639Z,4.50
2022-09-12T18:58:28.019Z,3.53
2022-09-12T19:00:55.322Z,6.55
2022-09-12T19:03:23.206Z,4.45
2022-09-12T19:05:50.461Z,9.75
2022-09-12T19:08:17.645Z,3.92
2022-09-12T19:10:46.518Z,5.50
2022-09-12T19:13:13.699Z,7.45
2022-09-12T19:15:42.126Z,3.22
2022-09-12T19:18:09.550Z,3.60
2022-09-12T19:20:36.987Z,4.35
2022-09-12T19:23:04.223Z,5.82
2022-09-12T19:25:31.560Z,4.78
2022-09-12T19:28:00.400Z,5.07
2022-09-12T19:30:27.698Z,4.68
2022-09-12T19:32:55.512Z,5.68
2022-09-12T19:35:22.822Z,8.73
2022-09-12T19:37:50.131Z,5.80
2022-09-12T19:40:17.544Z,3.40
2022-09-12T19:42:44.930Z,5.57
2022-09-12T19:45:13.681Z,4.80
2022-09-12T19:47:40.867Z,8.15
2022-09-12T19:50:08.757Z,4.43
2022-09-12T19:52:35.990Z,3.50
2022-09-12T19:55:03.235Z,5.97
2022-09-12T19:57:30.496Z,3.90
2022-09-12T19:59:57.992Z,4.50
2022-09-12T20:02:27.025Z,4.30
2022-09-12T20:04:54.254Z,4.20
2022-09-12T20:07:21.562Z,3.95
2022-09-12T20:09:48.779Z,5.13
2022-09-12T20:12:16.197Z,9.98
2022-09-12T20:14:43.506Z,4.80
2022-09-12T20:17:10.730Z,6.45
2022-09-12T20:19:39.441Z,5.07
2022-09-12T20:22:06.816Z,4.57
2022-09-12T20:24:34.071Z,5.43
2022-09-12T20:27:01.255Z,6.32
2022-09-12T20:29:28.567Z,4.57
2022-09-12T20:31:55.956Z,4.22
2022-09-12T20:34:23.462Z,4.85
2022-09-12T20:36:52.403Z,4.82
2022-09-12T20:39:20.638Z,6.20
2022-09-12T20:41:48.071Z,5.07
2022-09-12T20:44:15.532Z,4.22
2022-09-12T20:46:42.842Z,6.03
2022-09-12T20:49:10.127Z,5.53
2022-09-12T20:51:37.624Z,4.78
2022-09-12T20:54:07.502Z,8.43
2022-09-12T20:56:35.510Z,4.60
2022-09-12T20:59:02.753Z,4.50
2022-09-12T21:01:30.186Z,6.53
2022-09-12T21:03:57.651Z,6.32
2022-09-12T21:06:25.103Z,5.40
2022-09-12T21:08:53.380Z,4.47
2022-09-12T21:11:21.927Z,4.10
2022-09-12T21:13:49.369Z,4.22
2022-09-12T21:16:17.848Z,4.70
2022-09-12T21:18:45.467Z,9.40
2022-09-12T21:21:13.719Z,4.63
2022-09-12T21:23:41.079Z,4.38
2022-09-12T21:26:08.599Z,8.48
2022-09-12T21:28:37.445Z,4.80
2022-09-12T21:31:04.763Z,5.38
2022-09-12T21:33:32.042Z,4.35
2022-09-12T21:36:01.906Z,7.47
2022-09-12T21:38:29.168Z,4.45
2022-09-12T21:41:02.898Z,6.47
2022-09-12T21:43:30.216Z,5.88
2022-09-12T21:45:59.403Z,10.23
2022-09-12T21:48:26.738Z,6.65
2022-09-12T21:50:54.216Z,5.63
2022-09-12T21:53:21.581Z,5.88
2022-09-12T21:55:48.823Z,5.63
2022-09-12T21:58:16.211Z,5.43
2022-09-12T22:00:43.885Z,8.57
2022-09-12T22:03:12.599Z,7.47
2022-09-12T22:05:46.082Z,9.65
2022-09-12T22:08:13.276Z,6.65
2022-09-12T22:10:40.480Z,9.38
2022-09-12T22:13:07.716Z,5.03
2022-09-12T22:18:55.420Z,6.47
2022-09-12T22:21:24.081Z,5.50
2022-09-12T22:23:51.736Z,6.57
2022-09-12T22:26:19.116Z,6.03
2022-09-12T22:28:46.322Z,7.65
2022-09-12T22:31:14.243Z,6.15
2022-09-12T22:33:41.527Z,5.85
2022-09-12T22:36:09.474Z,4.68
2022-09-12T22:38:38.162Z,5.22
2022-09-12T22:41:05.718Z,5.03
2022-09-12T22:43:33.217Z,5.78
2022-09-12T22:46:00.612Z,11.93
2022-09-12T22:48:27.987Z,4.75
2022-09-12T22:50:55.375Z,9.13
2022-09-12T22:53:22.575Z,12.18
2022-09-12T22:55:51.583Z,8.32
2022-09-12T22:58:18.792Z,6.80
2022-09-12T23:00:49.137Z,9.13
2022-09-12T23:03:16.516Z,7.70
2022-09-12T23:05:49.282Z,6.20
2022-09-12T23:08:17.168Z,6.20
2022-09-12T23:10:44.539Z,6.43
2022-09-12T23:13:13.226Z,9.77
2022-09-12T23:16:02.448Z,8.13
2022-09-12T23:18:45.133Z,6.68
2022-09-12T23:21:13.130Z,5.77
2022-09-12T23:23:40.771Z,6.45
2022-09-12T23:26:09.021Z,5.68
2022-09-12T23:28:38.043Z,5.95
2022-09-12T23:31:06.157Z,6.57
2022-09-12T23:33:33.723Z,7.75
2022-09-12T23:36:01.792Z,8.25
2022-09-12T23:38:29.462Z,8.73
2022-09-12T23:40:56.775Z,9.07
2022-09-12T23:43:24.230Z,6.97
2022-09-12T23:45:53.422Z,5.10
2022-09-12T23:48:20.686Z,7.50
2022-09-12T23:50:53.640Z,7.43
2022-09-12T23:53:21.629Z,7.97
2022-09-12T23:55:49.220Z,8.40
2022-09-12T23:58:16.731Z,6.97
